Time;durP1;ratioP1;P1;durP2;ratioP2;P2;SDS_P1;SDS_P2;PMS_P1;PMS_P2;Temp;Humidity;BMP_temperature;BMP_pressure;BME280_temperature;BME280_humidity;BME280_pressure;Samples;Min_cycle;Max_cycle;Signal;HPM_P1;HPM_P2
2023/02/24 00:02:00;;;;;;;61.22;42.80;;;256.90;2252.80;;;;;;5041798;28;20025;-65
2023/02/24 00:04:39;;;;;;;78.18;56.83;;;281.60;2278.40;;;;;;5042698;28;20025;-64
2023/02/24 00:07:09;;;;;;;74.00;53.72;;;281.80;2278.40;;;;;;5042733;28;20075;-65
2023/02/24 00:09:36;;;;;;;108.70;78.20;;;281.90;2278.40;;;;;;5041745;28;20029;-66
2023/02/24 00:12:07;;;;;;;132.20;85.22;;;281.70;2278.40;;;;;;5040080;28;20036;-66
2023/02/24 00:14:37;;;;;;;133.27;90.97;;;281.80;2278.40;;;;;;5043420;28;20116;-65
2023/02/24 00:17:06;;;;;;;98.25;66.07;;;281.90;2278.40;;;;;;5040664;28;20391;-65
2023/02/24 00:19:33;;;;;;;66.10;45.17;;;281.80;2278.40;;;;;;5042126;28;20500;-66
2023/02/24 00:21:59;;;;;;;149.07;95.93;;;281.70;2278.40;;;;;;5041875;28;20472;-67
2023/02/24 00:24:25;;;;;;;94.18;64.93;;;281.60;2278.40;;;;;;5040168;28;20086;-65
2023/02/24 00:26:58;;;;;;;64.82;47.10;;;256.80;2252.80;;;;;;5041963;28;20134;-65
2023/02/24 00:29:25;;;;;;;92.50;68.93;;;256.90;2252.80;;;;;;5042160;28;20463;-68
2023/02/24 00:31:58;;;;;;;91.63;62.13;;;281.60;2278.40;;;;;;5041039;28;20049;-63
2023/02/24 00:34:34;;;;;;;115.97;81.70;;;281.60;2278.40;;;;;;5040130;28;20018;-64
2023/02/24 00:37:00;;;;;;;93.95;63.40;;;256.90;2252.80;;;;;;5040781;28;20024;-67
2023/02/24 00:39:32;;;;;;;94.60;65.85;;;281.60;2278.40;;;;;;5041891;28;20013;-65
2023/02/24 00:42:03;;;;;;;83.95;57.28;;;281.60;2278.40;;;;;;5040120;28;20035;-66
2023/02/24 00:44:42;;;;;;;137.57;99.28;;;281.70;2278.40;;;;;;5038088;28;20656;-66
2023/02/24 00:47:09;;;;;;;140.70;104.72;;;256.80;2252.80;;;;;;5056404;28;20398;-65
2023/02/24 00:49:40;;;;;;;134.38;95.05;;;256.80;2252.80;;;;;;5059865;28;20044;-66
2023/02/24 00:52:14;;;;;;;130.45;94.22;;;256.50;2252.80;;;;;;5060565;28;20024;-65
2023/02/24 00:54:41;;;;;;;136.85;100.18;;;256.50;2252.80;;;;;;5059397;28;20485;-67
2023/02/24 00:57:07;;;;;;;148.02;99.70;;;256.70;2252.80;;;;;;5061170;28;20418;-66
2023/02/24 00:59:33;;;;;;;116.57;83.22;;;256.40;2252.80;;;;;;5060000;28;20071;-66
2023/02/24 01:01:59;;;;;;;131.60;94.72;;;256.40;2252.80;;;;;;5061520;28;20025;-66
2023/02/24 01:04:28;;;;;;;130.48;97.18;;;256.30;2252.80;;;;;;5060899;28;20025;-66
2023/02/24 01:06:58;;;;;;;134.18;100.68;;;256.10;2252.80;;;;;;5055585;28;20450;-67
2023/02/24 01:09:27;;;;;;;141.27;103.13;;;256.20;2252.80;;;;;;5051412;28;20029;-67
2023/02/24 01:14:38;;;;;;;135.63;101.85;;;256.40;2252.80;;;;;;5051159;28;20071;-65
2023/02/24 01:17:05;;;;;;;137.88;99.40;;;256.50;2252.80;;;;;;5051081;28;20060;-66
2023/02/24 01:19:33;;;;;;;161.55;118.18;;;256.60;2252.80;;;;;;5051219;28;20027;-64
2023/02/24 01:22:01;;;;;;;173.48;117.88;;;256.60;2252.80;;;;;;5050830;28;20043;-66
2023/02/24 01:24:30;;;;;;;152.50;107.88;;;256.70;2252.80;;;;;;5050003;28;20436;-66
2023/02/24 01:26:56;;;;;;;149.38;106.80;;;256.80;2252.80;;;;;;5050756;28;20486;-67
2023/02/24 01:29:22;;;;;;;133.43;98.25;;;256.90;2252.80;;;;;;5065383;28;20024;-67
2023/02/24 01:31:50;;;;;;;136.25;97.55;;;256.90;2252.80;;;;;;5090976;28;20024;-65
2023/02/24 01:34:16;;;;;;;142.88;103.43;;;256.80;2252.80;;;;;;5090618;28;20024;-65
2023/02/24 01:36:43;;;;;;;120.00;88.18;;;256.80;2252.80;;;;;;5090992;28;20093;-66
2023/02/24 01:39:10;;;;;;;121.88;84.82;;;256.80;2252.80;;;;;;5090847;28;20028;-65
2023/02/24 01:41:38;;;;;;;120.53;87.03;;;256.90;2252.80;;;;;;5090531;28;20413;-65
2023/02/24 01:44:28;;;;;;;133.13;88.65;;;256.90;2252.80;;;;;;5090659;28;20024;-66
2023/02/24 01:46:55;;;;;;;130.70;93.38;;;256.90;2252.80;;;;;;5075046;28;20060;-65
2023/02/24 01:49:32;;;;;;;135.07;100.07;;;256.90;2252.80;;;;;;5070643;28;20025;-65
2023/02/24 01:52:09;;;;;;;144.63;105.60;;;256.80;2252.80;;;;;;5070946;28;20056;-65
2023/02/24 01:54:41;;;;;;;138.38;99.40;;;256.80;2252.80;;;;;;5070419;28;20078;-67
2023/02/24 01:57:09;;;;;;;135.38;100.80;;;256.80;2252.80;;;;;;5070343;28;20032;-67
2023/02/24 01:59:36;;;;;;;133.63;100.15;;;256.90;2252.80;;;;;;5052649;28;20541;-67
2023/02/24 02:02:05;;;;;;;130.32;98.05;;;256.70;2252.80;;;;;;5070595;28;20483;-66
2023/02/24 02:05:08;;;;;;;130.00;98.10;;;256.70;2252.80;;;;;;5070561;28;20071;-66
2023/02/24 02:07:34;;;;;;;135.57;98.47;;;256.80;2252.80;;;;;;5066705;28;20043;-67
2023/02/24 02:10:03;;;;;;;126.68;91.90;;;256.60;2252.80;;;;;;5070459;28;20478;-66
2023/02/24 02:12:32;;;;;;;121.25;93.95;;;256.40;2252.80;;;;;;5070219;28;20028;-67
2023/02/24 02:14:58;;;;;;;136.68;101.18;;;256.30;2252.80;;;;;;5070123;28;20383;-66
2023/02/24 02:17:32;;;;;;;122.97;95.13;;;256.40;2252.80;;;;;;5070165;28;20025;-67
2023/02/24 02:20:36;;;;;;;140.40;99.28;;;256.50;2252.80;;;;;;5070207;28;20025;-68
2023/02/24 02:23:20;;;;;;;139.00;93.90;;;256.40;2252.80;;;;;;5070263;28;20029;-68
2023/02/24 02:26:18;;;;;;;134.48;100.50;;;256.40;2252.80;;;;;;5069828;28;20869;-67
2023/02/24 02:29:08;;;;;;;124.10;90.45;;;256.20;2252.80;;;;;;5070097;28;20463;-67
2023/02/24 02:32:04;;;;;;;125.32;92.32;;;256.00;2252.80;;;;;;5070115;28;20035;-65
2023/02/24 02:34:56;;;;;;;127.05;96.72;;;256.10;2252.80;;;;;;5070226;28;20486;-66
2023/02/24 02:37:53;;;;;;;130.85;96.45;;;256.10;2252.80;;;;;;5074004;28;20021;-67
2023/02/24 02:40:36;;;;;;;117.70;88.68;;;256.00;2252.80;;;;;;5074184;28;20033;-67
2023/02/24 02:43:43;;;;;;;129.85;89.82;;;231.20;2252.80;;;;;;5073930;28;20033;-67
2023/02/24 02:46:16;;;;;;;122.45;87.45;;;231.30;2252.80;;;;;;4990669;28;20077;-66
2023/02/24 02:48:49;;;;;;;113.50;84.88;;;231.30;2252.80;;;;;;5012079;28;20523;-68
2023/02/24 02:51:20;;;;;;;124.95;89.53;;;231.10;2252.80;;;;;;5011893;28;20033;-66
2023/02/24 02:53:55;;;;;;;119.80;91.15;;;231.00;2252.80;;;;;;5011781;28;20026;-66
2023/02/24 02:56:30;;;;;;;112.88;84.78;;;231.00;2252.80;;;;;;5011851;28;20045;-65
2023/02/24 02:58:58;;;;;;;98.85;69.13;;;230.90;2252.80;;;;;;5011738;28;20030;-64
2023/02/24 03:01:28;;;;;;;88.35;68.07;;;231.00;2252.80;;;;;;5011773;28;20176;-66
2023/02/24 03:03:58;;;;;;;91.07;67.63;;;230.90;2252.80;;;;;;5011597;28;20179;-67
2023/02/24 03:06:36;;;;;;;92.28;67.10;;;230.90;2252.80;;;;;;5011551;28;20041;-68
2023/02/24 03:09:10;;;;;;;88.97;63.25;;;230.80;2252.80;;;;;;5011492;28;20582;-65
2023/02/24 03:11:40;;;;;;;83.07;63.20;;;230.80;2252.80;;;;;;5011097;28;20583;-67
2023/02/24 03:14:10;;;;;;;85.75;62.40;;;230.80;2252.80;;;;;;5011375;28;20053;-67
2023/02/24 03:16:41;;;;;;;82.20;58.65;;;230.80;2252.80;;;;;;5011353;28;20038;-66
2023/02/24 03:19:10;;;;;;;91.30;66.53;;;230.80;2252.80;;;;;;5011445;28;20033;-69
2023/02/24 03:21:44;;;;;;;82.78;60.35;;;230.90;2252.80;;;;;;5011377;28;20109;-68
2023/02/24 03:24:11;;;;;;;82.18;63.55;;;230.80;2252.80;;;;;;5093388;28;20030;-67
2023/02/24 03:26:42;;;;;;;87.13;63.67;;;230.90;2252.80;;;;;;5093342;28;20115;-68
2023/02/24 03:29:22;;;;;;;94.32;70.28;;;230.80;2252.80;;;;;;5093399;28;20077;-67
2023/02/24 03:31:48;;;;;;;85.53;62.72;;;230.90;2252.80;;;;;;5093219;28;20118;-66
2023/02/24 03:34:47;;;;;;;75.53;52.55;;;230.90;2252.80;;;;;;5093269;28;20107;-68
2023/02/24 03:37:13;;;;;;;62.08;44.25;;;230.90;2252.80;;;;;;5093522;28;20123;-66
2023/02/24 03:39:39;;;;;;;78.90;61.03;;;230.90;2252.80;;;;;;5093122;28;20103;-67
2023/02/24 03:42:17;;;;;;;94.47;69.38;;;230.80;2252.80;;;;;;5092743;28;20363;-67
2023/02/24 03:44:44;;;;;;;82.60;59.97;;;230.90;2252.80;;;;;;5092967;28;20046;-65
2023/02/24 03:47:11;;;;;;;107.57;80.25;;;230.90;2252.80;;;;;;5074130;28;20502;-66
2023/02/24 03:49:42;;;;;;;81.20;54.40;;;230.90;2252.80;;;;;;5072541;28;20055;-68
2023/02/24 03:52:20;;;;;;;47.92;36.63;;;230.80;2252.80;;;;;;5072402;28;20478;-67
2023/02/24 03:55:20;;;;;;;44.90;34.28;;;230.60;2252.80;;;;;;5072431;28;20013;-66
2023/02/24 03:58:22;;;;;;;40.13;30.60;;;230.80;2252.80;;;;;;5072310;28;20467;-66
2023/02/24 04:01:06;;;;;;;44.83;32.47;;;230.90;2252.80;;;;;;5072483;28;20028;-65
2023/02/24 04:04:01;;;;;;;44.80;30.80;;;231.00;2252.80;;;;;;5072459;28;20028;-65
2023/02/24 04:06:40;;;;;;;39.08;29.60;;;230.90;2252.80;;;;;;5072151;28;20082;-63
2023/02/24 04:09:09;;;;;;;48.03;34.58;;;230.90;2252.80;;;;;;5072055;28;20021;-66
2023/02/24 04:12:01;;;;;;;48.85;37.00;;;230.90;2252.80;;;;;;5071959;28;20021;-66
2023/02/24 04:14:50;;;;;;;55.30;39.65;;;230.90;2252.80;;;;;;5067773;28;20080;-65
2023/02/24 04:17:21;;;;;;;46.60;35.63;;;230.90;2252.80;;;;;;5072089;28;20500;-67
2023/02/24 04:19:49;;;;;;;53.08;35.25;;;230.90;2252.80;;;;;;5072043;28;20032;-66
2023/02/24 04:22:21;;;;;;;40.78;32.78;;;230.90;2252.80;;;;;;5071904;28;20048;-66
2023/02/24 04:24:50;;;;;;;59.33;38.35;;;230.90;2252.80;;;;;;5071967;28;20467;-66
2023/02/24 04:27:17;;;;;;;54.78;40.42;;;230.80;2252.80;;;;;;5071775;28;20052;-65
2023/02/24 04:29:49;;;;;;;61.35;46.38;;;230.80;2252.80;;;;;;5072194;28;20024;-65
2023/02/24 04:32:20;;;;;;;44.78;34.88;;;230.70;2252.80;;;;;;5071709;28;20024;-65
2023/02/24 04:34:45;;;;;;;39.85;32.47;;;230.60;2252.80;;;;;;5072022;28;20032;-66
2023/02/24 04:37:12;;;;;;;40.85;30.98;;;230.60;2252.80;;;;;;5072018;28;20031;-66
2023/02/24 04:39:38;;;;;;;42.40;30.52;;;230.50;2252.80;;;;;;5071959;28;20104;-66
2023/02/24 04:42:04;;;;;;;48.55;31.60;;;230.40;2252.80;;;;;;5071738;28;20963;-64
2023/02/24 04:44:34;;;;;;;51.53;35.42;;;205.70;2252.80;;;;;;5071637;28;20115;-65
2023/02/24 04:47:00;;;;;;;45.22;33.95;;;230.40;2252.80;;;;;;5071654;28;20060;-66
2023/02/24 04:49:25;;;;;;;44.40;32.88;;;230.60;2252.80;;;;;;5071689;28;20032;-67
2023/02/24 04:51:51;;;;;;;47.50;34.53;;;230.50;2252.80;;;;;;5071662;28;20132;-65
2023/02/24 04:54:19;;;;;;;47.58;35.42;;;230.50;2252.80;;;;;;5071362;28;20158;-65
2023/02/24 04:56:50;;;;;;;53.33;39.40;;;230.60;2252.80;;;;;;5071329;28;20032;-67
2023/02/24 04:59:17;;;;;;;62.53;45.17;;;230.60;2252.80;;;;;;5071129;28;20033;-67
2023/02/24 05:01:44;;;;;;;63.72;46.50;;;230.60;2252.80;;;;;;5071276;28;20108;-68
2023/02/24 05:04:12;;;;;;;39.60;29.42;;;230.50;2252.80;;;;;;5071311;28;20033;-65
2023/02/24 05:06:42;;;;;;;39.25;26.98;;;230.50;2252.80;;;;;;5070837;28;20115;-68
2023/02/24 05:09:18;;;;;;;31.33;24.63;;;230.50;2252.80;;;;;;5071044;28;20454;-68
2023/02/24 05:11:47;;;;;;;40.28;25.85;;;230.60;2252.80;;;;;;5070904;28;20057;-67
2023/02/24 05:14:15;;;;;;;38.95;29.67;;;230.70;2252.80;;;;;;5071183;28;20100;-67
2023/02/24 05:16:45;;;;;;;58.40;42.10;;;230.70;2252.80;;;;;;5071255;28;20028;-68
2023/02/24 05:21:57;;;;;;;45.53;31.02;;;230.70;2252.80;;;;;;5071139;28;20036;-67
2023/02/24 05:24:28;;;;;;;44.60;31.00;;;230.80;2252.80;;;;;;5071154;28;20029;-66
2023/02/24 05:26:58;;;;;;;36.60;27.80;;;230.80;2252.80;;;;;;5070699;28;20028;-66
2023/02/24 05:29:29;;;;;;;38.05;27.75;;;230.50;2252.80;;;;;;5070721;28;20027;-65
2023/02/24 05:31:58;;;;;;;48.38;30.55;;;230.60;2252.80;;;;;;5070539;28;20048;-65
2023/02/24 05:34:31;;;;;;;36.00;27.50;;;230.60;2252.80;;;;;;5070588;28;20462;-66
2023/02/24 05:37:00;;;;;;;35.95;28.27;;;230.50;2252.80;;;;;;5070480;28;20360;-64
2023/02/24 05:39:27;;;;;;;37.20;27.45;;;205.70;2252.80;;;;;;5070539;28;20540;-67
2023/02/24 05:41:55;;;;;;;37.53;26.90;;;205.70;2252.80;;;;;;5070701;28;20063;-67
2023/02/24 05:44:24;;;;;;;42.80;30.67;;;205.60;2252.80;;;;;;5070597;28;20056;-65
2023/02/24 05:46:56;;;;;;;64.90;45.00;;;230.40;2252.80;;;;;;5070531;28;20075;-66
2023/02/24 05:49:26;;;;;;;48.33;34.92;;;230.50;2252.80;;;;;;5070883;28;20025;-65
2023/02/24 05:51:55;;;;;;;47.65;36.00;;;230.60;2252.80;;;;;;5070788;28;20029;-67
2023/02/24 05:54:28;;;;;;;54.47;35.97;;;230.80;2252.80;;;;;;5070110;28;20108;-66
2023/02/24 05:56:56;;;;;;;82.18;54.55;;;230.80;2252.80;;;;;;5070185;28;20025;-66
2023/02/24 05:59:23;;;;;;;49.72;36.05;;;230.90;2252.80;;;;;;5070585;28;20521;-66
2023/02/24 06:01:52;;;;;;;60.03;44.13;;;231.00;2252.80;;;;;;5070586;28;20042;-63
2023/02/24 06:04:38;;;;;;;74.80;58.65;;;231.00;2252.80;;;;;;5070347;28;20029;-66
2023/02/24 06:07:18;;;;;;;77.03;52.47;;;231.00;2252.80;;;;;;5070247;28;20033;-66
2023/02/24 06:09:49;;;;;;;48.38;36.70;;;231.10;2252.80;;;;;;5070010;28;20100;-65
2023/02/24 06:12:16;;;;;;;92.28;60.10;;;231.20;2252.80;;;;;;5069816;28;20032;-66
2023/02/24 06:14:43;;;;;;;140.60;84.63;;;231.20;2252.80;;;;;;5070371;28;20467;-66
2023/02/24 06:17:09;;;;;;;146.00;86.22;;;231.20;2252.80;;;;;;5070347;28;20021;-65
2023/02/24 06:19:35;;;;;;;112.43;79.15;;;231.30;2252.80;;;;;;5070213;28;20081;-67
2023/02/24 06:22:02;;;;;;;147.25;120.13;;;231.30;2252.80;;;;;;5070202;28;20032;-65
2023/02/24 06:24:31;;;;;;;124.20;98.65;;;231.20;2252.80;;;;;;5069988;28;20024;-65
2023/02/24 06:27:01;;;;;;;112.43;90.47;;;231.20;2252.80;;;;;;5050868;28;20033;-66
2023/02/24 06:29:29;;;;;;;68.45;52.00;;;256.10;2252.80;;;;;;5070165;28;20056;-65
2023/02/24 06:31:59;;;;;;;51.58;38.60;;;256.00;2252.80;;;;;;5069974;28;20035;-67
2023/02/24 06:34:26;;;;;;;48.47;36.65;;;256.00;2252.80;;;;;;5070039;28;20024;-66
2023/02/24 06:36:52;;;;;;;41.05;29.20;;;231.30;2252.80;;;;;;5070139;28;20027;-66
2023/02/24 06:39:18;;;;;;;36.15;26.95;;;256.00;2252.80;;;;;;5070192;28;20028;-65
2023/02/24 06:41:47;;;;;;;36.05;23.52;;;256.40;2252.80;;;;;;5070050;28;20402;-66
2023/02/24 06:44:13;;;;;;;32.78;23.45;;;256.30;2252.80;;;;;;5069987;28;20025;-65
2023/02/24 06:46:40;;;;;;;28.83;23.50;;;256.20;2252.80;;;;;;5069889;28;20402;-64
2023/02/24 06:49:06;;;;;;;31.77;25.50;;;256.40;2252.80;;;;;;5069815;28;20032;-64
2023/02/24 06:51:32;;;;;;;35.08;26.52;;;281.70;2278.40;;;;;;5070085;28;20029;-66
2023/02/24 06:53:58;;;;;;;91.10;75.28;;;282.20;2278.40;;;;;;5069961;28;20540;-64
2023/02/24 06:56:25;;;;;;;25.52;21.50;;;282.40;2278.40;;;;;;5069927;28;20013;-66
2023/02/24 06:58:54;;;;;;;30.00;23.45;;;282.20;2278.40;;;;;;5069928;28;20025;-66
2023/02/24 07:01:25;;;;;;;49.85;36.10;;;282.30;2278.40;;;;;;5070063;28;20027;-67
2023/02/24 07:04:16;;;;;;;34.55;28.08;;;307.20;2304.00;;;;;;5069919;28;20429;-65
2023/02/24 07:06:46;;;;;;;98.95;73.20;;;307.30;2304.00;;;;;;5069849;28;20063;-66
2023/02/24 07:09:14;;;;;;;85.18;59.28;;;307.60;2304.00;;;;;;5069734;28;20028;-65
2023/02/24 07:11:51;;;;;;;77.72;61.33;;;307.60;2304.00;;;;;;5069461;28;20036;-64
2023/02/24 07:14:19;;;;;;;101.88;80.15;;;307.60;2304.00;;;;;;5069535;28;20032;-65
2023/02/24 07:16:45;;;;;;;99.80;79.25;;;307.90;2304.00;;;;;;5069504;28;20058;-65
2023/02/24 07:19:14;;;;;;;134.48;105.00;;;332.80;2329.60;;;;;;5070063;28;20025;-63
2023/02/24 07:21:45;;;;;;;100.07;74.28;;;307.60;2304.00;;;;;;5032628;28;20121;-68
2023/02/24 07:24:13;;;;;;;111.88;85.05;;;333.20;2329.60;;;;;;5032853;28;20418;-66
2023/02/24 07:26:41;;;;;;;101.00;78.53;;;333.20;2329.60;;;;;;5033197;28;20037;-65
2023/02/24 07:29:10;;;;;;;103.30;74.28;;;333.70;2329.60;;;;;;5032814;28;20521;-66
2023/02/24 07:31:37;;;;;;;93.30;78.88;;;333.70;2329.60;;;;;;5032990;28;20044;-66
2023/02/24 07:34:03;;;;;;;104.03;81.30;;;333.70;2329.60;;;;;;5033330;28;20112;-66
2023/02/24 07:36:33;;;;;;;101.70;83.80;;;358.90;2329.60;;;;;;5033172;28;20036;-66
2023/02/24 07:39:01;;;;;;;97.97;74.53;;;359.10;2329.60;;;;;;5033180;28;20160;-60
2023/02/24 07:41:27;;;;;;;110.88;88.97;;;359.20;2329.60;;;;;;5032659;28;20383;-61
2023/02/24 07:43:54;;;;;;;83.93;67.13;;;384.20;2329.60;;;;;;5032851;28;20031;-60
2023/02/24 07:46:23;;;;;;;50.17;42.63;;;384.30;2329.60;;;;;;5032623;28;20056;-59
2023/02/24 07:48:51;;;;;;;62.22;51.17;;;384.80;2329.60;;;;;;5033072;28;20121;-61
2023/02/24 07:51:19;;;;;;;63.05;51.65;;;409.80;2355.20;;;;;;5032636;28;20104;-61
2023/02/24 07:53:55;;;;;;;60.17;52.17;;;410.30;2355.20;;;;;;5032629;28;20112;-60
2023/02/24 07:56:25;;;;;;;73.68;64.47;;;435.60;2355.20;;;;;;5032804;28;20034;-62
2023/02/24 07:58:58;;;;;;;67.32;59.53;;;436.10;2329.60;;;;;;5032524;28;20464;-61
2023/02/24 08:01:37;;;;;;;60.38;52.33;;;460.90;2329.60;;;;;;5032730;28;20025;-61
2023/02/24 08:04:06;;;;;;;76.47;68.47;;;460.80;2304.00;;;;;;5040543;28;20075;-61
2023/02/24 08:06:46;;;;;;;63.88;54.63;;;436.10;2278.40;;;;;;5041892;28;20036;-62
2023/02/24 08:09:19;;;;;;;61.90;47.08;;;435.80;2329.60;;;;;;5038979;28;20018;-62
2023/02/24 08:11:51;;;;;;;56.75;49.45;;;435.80;2304.00;;;;;;5040510;28;20017;-62
2023/02/24 08:14:18;;;;;;;60.65;46.17;;;435.20;2355.20;;;;;;5041116;28;20041;-62
2023/02/24 08:16:46;;;;;;;64.75;49.60;;;435.70;2329.60;;;;;;5033390;28;20436;-63
2023/02/24 08:19:19;;;;;;;64.28;55.70;;;435.60;2304.00;;;;;;5032401;28;20483;-62
2023/02/24 08:21:49;;;;;;;70.53;59.20;;;435.50;2355.20;;;;;;5032011;28;20021;-62
2023/02/24 08:24:22;;;;;;;71.70;57.42;;;436.00;2278.40;;;;;;5032260;28;20088;-62
2023/02/24 08:27:05;;;;;;;92.43;74.18;;;461.30;2278.40;;;;;;5013913;28;20045;-62
2023/02/24 08:29:56;;;;;;;104.40;85.82;;;461.60;2201.60;;;;;;5035309;28;20594;-64
2023/02/24 08:32:25;;;;;;;106.80;94.57;;;487.20;2048.00;;;;;;5031043;28;20048;-63
2023/02/24 08:34:55;;;;;;;92.72;82.72;;;538.50;1894.40;;;;;;5031764;28;20030;-63
2023/02/24 08:37:24;;;;;;;99.18;85.88;;;512.70;1945.60;;;;;;5032067;28;20041;-63
2023/02/24 08:39:52;;;;;;;110.72;91.88;;;512.50;1971.20;;;;;;5032007;28;20053;-63
2023/02/24 08:42:29;;;;;;;98.00;77.03;;;537.80;1945.60;;;;;;5031624;28;20139;-63
2023/02/24 08:44:57;;;;;;;120.10;90.10;;;512.90;1894.40;;;;;;5031607;28;20523;-63
2023/02/24 08:47:29;;;;;;;99.65;77.80;;;487.10;1971.20;;;;;;5031653;28;20045;-62
2023/02/24 08:49:58;;;;;;;103.97;78.95;;;487.30;1971.20;;;;;;5031915;28;20098;-63
2023/02/24 08:52:26;;;;;;;86.30;70.97;;;537.80;1945.60;;;;;;5031382;28;20064;-64
2023/02/24 08:54:57;;;;;;;106.32;84.13;;;537.80;1894.40;;;;;;5031472;28;20029;-62
2023/02/24 08:57:25;;;;;;;99.97;80.18;;;512.90;1920.00;;;;;;5039685;28;20022;-64
2023/02/24 08:59:56;;;;;;;104.07;85.57;;;487.30;1996.80;;;;;;5039459;28;20163;-63
2023/02/24 09:02:28;;;;;;;84.00;73.20;;;486.70;2073.60;;;;;;5040163;28;20029;-63
2023/02/24 09:04:53;;;;;;;93.75;75.45;;;487.10;2048.00;;;;;;5038826;28;20050;-62
2023/02/24 09:07:23;;;;;;;95.88;80.63;;;486.80;2099.20;;;;;;5041085;28;20029;-64
2023/02/24 09:09:49;;;;;;;103.00;87.13;;;512.90;1945.60;;;;;;5038112;28;20052;-63
2023/02/24 09:12:23;;;;;;;93.45;83.05;;;512.00;2048.00;;;;;;5040346;28;20070;-64
2023/02/24 09:14:56;;;;;;;102.32;88.90;;;537.60;1996.80;;;;;;5040433;28;20151;-61
2023/02/24 09:17:39;;;;;;;106.47;89.43;;;538.50;1945.60;;;;;;5039868;28;20358;-62
2023/02/24 09:22:59;;;;;;;94.65;84.40;;;563.30;1945.60;;;;;;5040630;28;20071;-64
2023/02/24 09:25:39;;;;;;;96.13;84.43;;;537.70;1971.20;;;;;;5045686;28;20033;-63
2023/02/24 09:28:24;;;;;;;101.93;85.63;;;537.60;1996.80;;;;;;5045343;28;20060;-64
2023/02/24 09:30:59;;;;;;;94.97;76.93;;;512.00;2073.60;;;;;;5045419;28;20029;-63
2023/02/24 09:33:26;;;;;;;100.68;81.15;;;487.00;2099.20;;;;;;5035119;28;20075;-63
2023/02/24 09:36:08;;;;;;;90.35;77.32;;;486.60;2150.40;;;;;;5039408;28;20025;-63
2023/02/24 09:44:19;;;;;;;79.75;67.25;;;461.50;2150.40;;;;;;5033809;28;20483;-64
2023/02/24 09:47:07;;;;;;;73.47;58.50;;;461.40;2227.20;;;;;;5044699;28;20685;-63
2023/02/24 09:49:45;;;;;;;73.40;59.95;;;486.50;2150.40;;;;;;5060048;28;20074;-62
2023/02/24 09:52:17;;;;;;;70.90;56.13;;;461.10;2227.20;;;;;;5060155;28;20095;-62
2023/02/24 09:55:17;;;;;;;74.40;54.38;;;461.10;2227.20;;;;;;5059527;28;20013;-64
2023/02/24 10:00:33;;;;;;;85.88;64.40;;;460.80;2329.60;;;;;;5049762;28;20063;-62
2023/02/24 10:03:28;;;;;;;83.20;64.15;;;435.90;2355.20;;;;;;5059246;28;20013;-62
2023/02/24 10:06:10;;;;;;;72.55;52.67;;;436.10;2355.20;;;;;;5059559;28;20446;-63
2023/02/24 10:08:49;;;;;;;65.25;49.40;;;435.80;2329.60;;;;;;5053855;28;20551;-63
2023/02/24 10:11:15;;;;;;;64.28;47.25;;;460.80;2278.40;;;;;;5050568;28;20112;-63
2023/02/24 10:13:52;;;;;;;78.15;58.30;;;461.20;2150.40;;;;;;5050641;28;20502;-62
2023/02/24 10:16:22;;;;;;;73.82;56.53;;;486.40;2150.40;;;;;;5064309;28;20487;-63
2023/02/24 10:19:22;;;;;;;38.67;32.65;;;461.50;2124.80;;;;;;5064109;28;20057;-60
2023/02/24 10:22:04;;;;;;;39.33;26.05;;;461.20;2048.00;;;;;;5059584;28;20107;-63
2023/02/24 10:25:00;;;;;;;45.00;30.10;;;461.70;1945.60;;;;;;5061317;28;20025;-63
2023/02/24 10:27:30;;;;;;;66.90;31.52;;;461.40;1996.80;;;;;;5056538;28;20163;-62
2023/02/24 10:30:39;;;;;;;39.30;25.90;;;461.50;1996.80;;;;;;5055215;28;20021;-66
2023/02/24 10:33:19;;;;;;;34.28;22.10;;;461.40;1971.20;;;;;;5019217;28;20117;-62
2023/02/24 10:35:45;;;;;;;25.13;14.45;;;460.90;1971.20;;;;;;5061954;28;20021;-62
2023/02/24 10:38:11;;;;;;;24.17;14.65;;;461.40;1843.20;;;;;;5059885;28;20024;-63
2023/02/24 10:40:51;;;;;;;30.50;20.23;;;461.40;1843.20;;;;;;5065204;28;20024;-63
2023/02/24 10:43:28;;;;;;;25.35;16.70;;;461.70;1843.20;;;;;;5049219;28;20079;-65
2023/02/24 10:46:04;;;;;;;30.08;19.73;;;461.70;1817.60;;;;;;5054477;28;20059;-61
2023/02/24 10:48:37;;;;;;;19.10;9.88;;;486.50;1817.60;;;;;;5043667;28;20055;-61
2023/02/24 10:51:17;;;;;;;19.63;7.90;;;486.60;1766.40;;;;;;5044323;28;20029;-63
2023/02/24 10:53:51;;;;;;;21.38;9.85;;;486.60;1689.60;;;;;;5044182;28;20538;-63
2023/02/24 11:02:15;;;;;;;17.00;7.00;;;486.80;1689.60;;;;;;5047353;28;20033;-62
2023/02/24 11:04:52;;;;;;;22.58;9.80;;;486.70;1664.00;;;;;;5047817;28;20090;-64
2023/02/24 11:07:42;;;;;;;14.93;7.88;;;486.60;1689.60;;;;;;5047497;28;20467;-63
2023/02/24 11:10:24;;;;;;;18.45;6.88;;;486.40;1689.60;;;;;;5046387;28;20037;-63
2023/02/24 11:18:31;;;;;;;16.50;7.05;;;486.60;1664.00;;;;;;5052835;28;20036;-63
2023/02/24 11:21:02;;;;;;;15.05;8.25;;;487.00;1664.00;;;;;;5033231;28;20380;-63
2023/02/24 11:23:41;;;;;;;18.08;8.15;;;487.10;1664.00;;;;;;5033172;28;20089;-63
2023/02/24 11:26:37;;;;;;;14.82;8.60;;;487.10;1638.40;;;;;;5032898;28;20034;-63
2023/02/24 11:29:12;;;;;;;19.30;8.05;;;487.00;1638.40;;;;;;5025854;28;20064;-63
2023/02/24 11:31:51;;;;;;;13.10;5.97;;;486.70;1612.80;;;;;;5041531;28;20033;-64
2023/02/24 11:34:27;;;;;;;17.83;8.30;;;486.80;1638.40;;;;;;5040225;28;20104;-63
2023/02/24 11:37:33;;;;;;;34.90;22.63;;;486.80;1638.40;;;;;;5053142;28;20024;-63
2023/02/24 11:40:09;;;;;;;22.73;13.40;;;486.50;1638.40;;;;;;4952296;29;20135;-62
2023/02/24 11:43:09;;;;;;;26.75;16.00;;;486.40;1664.00;;;;;;4950772;28;20039;-63
2023/02/24 11:45:57;;;;;;;20.00;12.20;;;486.70;1664.00;;;;;;4955960;28;20096;-64
2023/02/24 11:48:44;;;;;;;25.90;14.98;;;486.80;1664.00;;;;;;4995313;28;20031;-63
2023/02/24 11:51:19;;;;;;;34.30;16.55;;;486.70;1664.00;;;;;;4991393;28;20030;-63
2023/02/24 11:54:11;;;;;;;25.55;12.57;;;487.00;1638.40;;;;;;4991148;28;20029;-63
2023/02/24 11:56:47;;;;;;;20.73;7.55;;;487.10;1638.40;;;;;;4991054;28;20117;-63
2023/02/24 11:59:32;;;;;;;24.33;8.88;;;486.80;1638.40;;;;;;4991278;28;20056;-63
2023/02/24 12:02:40;;;;;;;14.02;6.72;;;486.50;1638.40;;;;;;4991145;28;20039;-64
2023/02/24 12:05:19;;;;;;;17.65;8.07;;;486.40;1664.00;;;;;;4991074;28;20045;-63
2023/02/24 12:07:57;;;;;;;19.35;8.00;;;461.70;1664.00;;;;;;4990528;28;20065;-63
2023/02/24 12:10:37;;;;;;;23.50;7.53;;;461.70;1689.60;;;;;;4991008;28;20030;-62
2023/02/24 12:13:40;;;;;;;18.15;7.15;;;461.60;1689.60;;;;;;4990785;28;20113;-62
2023/02/24 12:16:14;;;;;;;18.38;6.57;;;461.70;1638.40;;;;;;5036165;28;20525;-63
2023/02/24 12:19:11;;;;;;;15.65;7.10;;;461.70;1664.00;;;;;;5050224;28;20036;-64
2023/02/24 12:21:43;;;;;;;22.02;6.88;;;486.50;1664.00;;;;;;5045974;28;20036;-63
2023/02/24 12:24:15;;;;;;;21.63;7.87;;;486.80;1638.40;;;;;;5049851;28;20025;-63
2023/02/24 12:27:02;;;;;;;22.95;6.82;;;486.70;1612.80;;;;;;5049801;28;20037;-63
2023/02/24 12:30:05;;;;;;;21.58;6.95;;;486.70;1612.80;;;;;;5049633;28;20435;-63
2023/02/24 12:32:41;;;;;;;19.98;9.68;;;486.40;1638.40;;;;;;5049884;28;20083;-63
2023/02/24 12:35:21;;;;;;;19.60;11.27;;;486.40;1638.40;;;;;;5054606;28;20060;-63
2023/02/24 12:38:11;;;;;;;27.20;15.52;;;461.70;1612.80;;;;;;5071672;28;20467;-63
2023/02/24 12:40:48;;;;;;;27.83;10.30;;;461.60;1587.20;;;;;;5071688;28;20025;-64
2023/02/24 12:43:24;;;;;;;22.35;7.97;;;461.50;1638.40;;;;;;5071157;28;20068;-64
2023/02/24 12:46:25;;;;;;;16.35;9.95;;;461.60;1638.40;;;;;;5065686;28;20053;-63
2023/02/24 12:49:10;;;;;;;18.58;6.95;;;461.50;1638.40;;;;;;4951514;29;20481;-63
2023/02/24 12:51:57;;;;;;;16.63;6.82;;;461.50;1664.00;;;;;;4951303;29;20031;-63
2023/02/24 12:54:56;;;;;;;19.67;7.25;;;461.70;1612.80;;;;;;4951493;29;20118;-63
2023/02/24 12:57:40;;;;;;;13.98;6.32;;;486.50;1638.40;;;;;;4951333;29;20038;-63
2023/02/24 13:00:12;;;;;;;14.20;6.93;;;486.50;1638.40;;;;;;4951082;29;20031;-64